Time,TemperatureF,DewpointF,PressureIn,WindDirection,WindDirectionDegrees,WindSpeedMPH,WindSpeedGustMPH,Humidity,HourlyPrecipIn,Conditions,Clouds,dailyrainin,SoftwareType,DateUTC
2013-08-18 00:06:00,66.9,58.0,30.08,SW,222,4.0,7.0,72,0.00,,,0.00,weatherlink.com 1.10,2013-08-18 05:06:00,
2013-08-18 00:21:00,66.2,57.0,30.08,SSW,199,4.0,6.0,73,0.00,,,0.00,weatherlink.com 1.10,2013-08-18 05:21:00,
2013-08-18 00:36:00,65.9,57.0,30.08,SSW,206,4.0,7.0,74,0.00,,,0.00,weatherlink.com 1.10,2013-08-18 05:36:00,
2013-08-18 00:51:00,64.9,57.0,30.08,SSW,211,3.0,6.0,76,0.00,,,0.00,weatherlink.com 1.10,2013-08-18 05:51:00,
2013-08-18 01:06:00,63.9,57.0,30.08,SSW,210,3.0,5.0,78,0.00,,,0.00,weatherlink.com 1.10,2013-08-18 06:06:00,
2013-08-18 01:21:00,63.2,57.0,30.08,SSW,211,3.0,5.0,79,0.00,,,0.00,weatherlink.com 1.10,2013-08-18 06:21:00,
2013-08-18 01:36:00,62.8,57.0,30.09,WSW,240,2.0,5.0,80,0.00,,,0.00,weatherlink.com 1.10,2013-08-18 06:36:00,
2013-08-18 01:51:00,62.4,56.0,30.09,SSW,205,4.0,5.0,80,0.00,,,0.00,weatherlink.com 1.10,2013-08-18 06:51:00,
2013-08-18 02:06:00,62.2,56.0,30.09,SSW,208,5.0,5.0,81,0.00,,,0.00,weatherlink.com 1.10,2013-08-18 07:06:00,
2013-08-18 02:21:00,61.9,56.0,30.09,SW,218,4.0,6.0,82,0.00,,,0.00,weatherlink.com 1.10,2013-08-18 07:21:00,
2013-08-18 02:36:00,61.5,56.0,30.09,SW,229,2.0,6.0,83,0.00,,,0.00,weatherlink.com 1.10,2013-08-18 07:36:00,
2013-08-18 02:51:00,60.9,56.0,30.09,SSW,211,4.0,5.0,84,0.00,,,0.00,weatherlink.com 1.10,2013-08-18 07:51:00,
2013-08-18 03:06:00,61.3,56.0,30.08,SW,215,3.0,6.0,83,0.00,,,0.00,weatherlink.com 1.10,2013-08-18 08:06:00,
2013-08-18 03:21:00,61.2,56.0,30.09,SSW,211,3.0,7.0,83,0.00,,,0.00,weatherlink.com 1.10,2013-08-18 08:21:00,
2013-08-18 03:36:00,60.3,56.0,30.09,WSW,241,3.0,4.0,85,0.00,,,0.00,weatherlink.com 1.10,2013-08-18 08:36:00,
2013-08-18 03:51:00,60.0,56.0,30.09,SSW,202,4.0,4.0,85,0.00,,,0.00,weatherlink.com 1.10,2013-08-18 08:51:00,
2013-08-18 04:06:00,59.6,56.0,30.09,SSW,210,4.0,4.0,86,0.00,,,0.00,weatherlink.com 1.10,2013-08-18 09:06:00,
2013-08-18 04:21:00,59.5,55.0,30.10,SSW,192,4.0,5.0,86,0.00,,,0.00,weatherlink.com 1.10,2013-08-18 09:21:00,
2013-08-18 04:36:00,59.6,56.0,30.09,SW,221,2.0,5.0,86,0.00,,,0.00,weatherlink.com 1.10,2013-08-18 09:36:00,
2013-08-18 04:51:00,59.7,56.0,30.09,SW,225,3.0,5.0,86,0.00,,,0.00,weatherlink.com 1.10,2013-08-18 09:51:00,
2013-08-18 05:06:00,59.5,55.0,30.09,SW,214,3.0,6.0,86,0.00,,,0.00,weatherlink.com 1.10,2013-08-18 10:06:00,
2013-08-18 05:21:00,59.7,56.0,30.09,SSW,208,4.0,7.0,86,0.00,,,0.00,weatherlink.com 1.10,2013-08-18 10:21:00,
2013-08-18 05:36:00,59.4,55.0,30.08,SSW,206,4.0,6.0,86,0.00,,,0.00,weatherlink.com 1.10,2013-08-18 10:36:00,
2013-08-18 05:51:00,59.3,56.0,30.09,SSW,202,4.0,7.0,87,0.00,,,0.00,weatherlink.com 1.10,2013-08-18 10:51:00,
2013-08-18 06:06:00,58.9,55.0,30.09,SW,218,4.0,6.0,87,0.00,,,0.00,weatherlink.com 1.10,2013-08-18 11:06:00,
2013-08-18 06:21:00,58.6,55.0,30.09,SSW,213,4.0,6.0,88,0.00,,,0.00,weatherlink.com 1.10,2013-08-18 11:21:00,
2013-08-18 06:36:00,58.9,55.0,30.10,SW,218,4.0,7.0,88,0.00,,,0.00,weatherlink.com 1.10,2013-08-18 11:36:00,
2013-08-18 06:51:00,59.6,56.0,30.10,SSW,210,3.0,7.0,86,0.00,,,0.00,weatherlink.com 1.10,2013-08-18 11:51:00,
2013-08-18 07:06:00,60.1,56.0,30.10,SSW,211,5.0,7.0,85,0.00,,,0.00,weatherlink.com 1.10,2013-08-18 12:06:00,
2013-08-18 07:21:00,61.0,56.0,30.10,South,182,3.0,9.0,84,0.00,,,0.00,weatherlink.com 1.10,2013-08-18 12:21:00,
2013-08-18 07:36:00,62.0,56.0,30.10,SW,228,5.0,9.0,81,0.00,,,0.00,weatherlink.com 1.10,2013-08-18 12:36:00,
2013-08-18 07:51:00,62.8,57.0,30.10,SW,218,3.0,10.0,81,0.00,,,0.00,weatherlink.com 1.10,2013-08-18 12:51:00,
2013-08-18 08:06:00,63.6,58.0,30.10,South,188,2.0,7.0,81,0.00,,,0.00,weatherlink.com 1.10,2013-08-18 13:06:00,
2013-08-18 08:21:00,64.7,58.0,30.11,SSW,210,5.0,6.0,80,0.00,,,0.00,weatherlink.com 1.10,2013-08-18 13:21:00,
2013-08-18 08:36:00,65.9,59.0,30.11,SSW,192,4.0,8.0,77,0.00,,,0.00,weatherlink.com 1.10,2013-08-18 13:36:00,
2013-08-18 08:51:00,67.3,60.0,30.11,SSW,211,1.0,6.0,76,0.00,,,0.00,weatherlink.com 1.10,2013-08-18 13:51:00,
2013-08-18 09:07:00,68.6,60.0,30.11,SSW,208,4.0,6.0,73,0.00,,,0.00,weatherlink.com 1.10,2013-08-18 14:07:00,
2013-08-18 09:22:00,69.4,59.0,30.11,SSW,212,1.0,10.0,70,0.00,,,0.00,weatherlink.com 1.10,2013-08-18 14:22:00,
2013-08-18 09:37:00,69.8,60.0,30.10,SSW,212,7.0,11.0,71,0.00,,,0.00,weatherlink.com 1.10,2013-08-18 14:37:00,
2013-08-18 09:52:00,70.9,59.0,30.10,SSW,211,7.0,12.0,67,0.00,,,0.00,weatherlink.com 1.10,2013-08-18 14:52:00,
2013-08-18 10:07:00,71.8,60.0,30.10,SSW,199,4.0,10.0,67,0.00,,,0.00,weatherlink.com 1.10,2013-08-18 15:07:00,
2013-08-18 10:22:00,72.8,60.0,30.09,SSW,208,5.0,11.0,64,0.00,,,0.00,weatherlink.com 1.10,2013-08-18 15:22:00,
2013-08-18 10:37:00,73.7,60.0,30.09,South,184,7.0,11.0,63,0.00,,,0.00,weatherlink.com 1.10,2013-08-18 15:37:00,
2013-08-18 10:53:00,74.6,59.0,30.09,SW,231,7.0,14.0,59,0.00,,,0.00,weatherlink.com 1.10,2013-08-18 15:53:00,
2013-08-18 11:07:00,75.1,60.0,30.08,SSW,192,8.0,12.0,59,0.00,,,0.00,weatherlink.com 1.10,2013-08-18 16:07:00,
2013-08-18 11:22:00,75.8,60.0,30.08,SSW,204,6.0,12.0,59,0.00,,,0.00,weatherlink.com 1.10,2013-08-18 16:22:00,
2013-08-18 11:37:00,76.2,59.0,30.07,WSW,237,7.0,16.0,56,0.00,,,0.00,weatherlink.com 1.10,2013-08-18 16:37:00,
2013-08-18 11:52:00,76.6,59.0,30.06,SSW,202,18.0,18.0,55,0.00,,,0.00,weatherlink.com 1.10,2013-08-18 16:52:00,
2013-08-18 12:07:00,77.0,59.0,30.06,SSW,198,9.0,17.0,54,0.00,,,0.00,weatherlink.com 1.10,2013-08-18 17:07:00,
2013-08-18 12:22:00,77.0,60.0,30.05,South,180,11.0,16.0,56,0.00,,,0.00,weatherlink.com 1.10,2013-08-18 17:22:00,
2013-08-18 12:37:00,77.7,59.0,30.04,SSW,192,7.0,18.0,53,0.00,,,0.00,weatherlink.com 1.10,2013-08-18 17:37:00,
2013-08-18 12:52:00,78.3,59.0,30.04,SW,219,6.0,19.0,52,0.00,,,0.00,weatherlink.com 1.10,2013-08-18 17:52:00,
2013-08-18 13:07:00,78.4,58.0,30.03,SW,235,17.0,18.0,50,0.00,,,0.00,weatherlink.com 1.10,2013-08-18 18:07:00,
2013-08-18 13:22:00,77.8,58.0,30.02,SSW,205,13.0,21.0,51,0.00,,,0.00,weatherlink.com 1.10,2013-08-18 18:22:00,
2013-08-18 13:37:00,78.2,58.0,30.02,SSE,168,8.0,21.0,50,0.00,,,0.00,weatherlink.com 1.10,2013-08-18 18:37:00,
2013-08-18 13:52:00,78.5,58.0,30.02,South,174,10.0,19.0,50,0.00,,,0.00,weatherlink.com 1.10,2013-08-18 18:52:00,
2013-08-18 14:07:00,78.5,57.0,30.03,SSW,199,7.0,19.0,48,0.00,,,0.00,weatherlink.com 1.10,2013-08-18 19:07:00,
2013-08-18 14:22:00,79.5,58.0,30.03,SW,236,4.0,15.0,48,0.00,,,0.00,weatherlink.com 1.10,2013-08-18 19:22:00,
2013-08-18 14:37:00,79.7,58.0,30.03,SW,224,14.0,15.0,47,0.00,,,0.00,weatherlink.com 1.10,2013-08-18 19:37:00,
2013-08-18 14:52:00,80.3,58.0,30.04,South,185,10.0,14.0,47,0.00,,,0.00,weatherlink.com 1.10,2013-08-18 19:52:00,
2013-08-18 15:08:00,80.4,58.0,30.04,SW,225,6.0,13.0,46,0.00,,,0.00,weatherlink.com 1.10,2013-08-18 20:08:00,
2013-08-18 15:23:00,79.5,57.0,30.04,WSW,256,16.0,21.0,46,0.00,,,0.00,weatherlink.com 1.10,2013-08-18 20:23:00,
2013-08-18 15:38:00,79.4,58.0,30.03,South,185,6.0,14.0,48,0.00,,,0.00,weatherlink.com 1.10,2013-08-18 20:38:00,
2013-08-18 15:53:00,78.5,58.0,30.03,WSW,245,7.0,17.0,50,0.00,,,0.00,weatherlink.com 1.10,2013-08-18 20:53:00,
2013-08-18 16:08:00,79.2,59.0,30.02,South,178,10.0,15.0,50,0.00,,,0.00,weatherlink.com 1.10,2013-08-18 21:08:00,
2013-08-18 16:23:00,79.8,59.0,30.01,SSW,209,3.0,14.0,50,0.00,,,0.00,weatherlink.com 1.10,2013-08-18 21:23:00,
2013-08-18 16:38:00,80.0,59.0,30.01,South,187,6.0,16.0,49,0.00,,,0.00,weatherlink.com 1.10,2013-08-18 21:38:00,
2013-08-18 16:53:00,79.8,59.0,30.01,South,191,8.0,14.0,49,0.00,,,0.00,weatherlink.com 1.10,2013-08-18 21:53:00,
2013-08-18 17:08:00,79.4,59.0,29.99,South,187,10.0,17.0,50,0.00,,,0.00,weatherlink.com 1.10,2013-08-18 22:08:00,
2013-08-18 17:23:00,79.2,59.0,29.99,WSW,239,2.0,15.0,51,0.00,,,0.00,weatherlink.com 1.10,2013-08-18 22:23:00,
2013-08-18 17:38:00,78.7,60.0,30.00,SSW,205,5.0,12.0,52,0.00,,,0.00,weatherlink.com 1.10,2013-08-18 22:38:00,
2013-08-18 17:53:00,77.9,59.0,30.00,SSW,203,11.0,15.0,53,0.00,,,0.00,weatherlink.com 1.10,2013-08-18 22:53:00,
2013-08-18 18:08:00,77.9,60.0,29.99,SW,232,8.0,12.0,55,0.00,,,0.00,weatherlink.com 1.10,2013-08-18 23:08:00,
2013-08-18 18:23:00,77.5,60.0,29.99,SSW,202,8.0,10.0,55,0.00,,,0.00,weatherlink.com 1.10,2013-08-18 23:23:00,
2013-08-18 18:38:00,77.5,60.0,29.98,SW,217,6.0,14.0,55,0.00,,,0.00,weatherlink.com 1.10,2013-08-18 23:38:00,
2013-08-18 18:53:00,77.1,60.0,29.98,SW,216,9.0,11.0,56,0.00,,,0.00,weatherlink.com 1.10,2013-08-18 23:53:00,
2013-08-18 19:08:00,77.0,60.0,29.98,SSW,210,2.0,11.0,57,0.00,,,0.00,weatherlink.com 1.10,2013-08-19 00:08:00,
2013-08-18 19:23:00,76.3,60.0,29.98,SSW,210,6.0,11.0,58,0.00,,,0.00,weatherlink.com 1.10,2013-08-19 00:23:00,
2013-08-18 19:39:00,74.9,60.0,29.97,SSW,204,7.0,11.0,61,0.00,,,0.00,weatherlink.com 1.10,2013-08-19 00:39:00,
2013-08-18 19:53:00,73.9,61.0,29.96,SSW,194,3.0,5.0,65,0.00,,,0.00,weatherlink.com 1.10,2013-08-19 00:53:00,
2013-08-18 20:08:00,73.2,61.0,29.96,SE,134,1.0,5.0,66,0.00,,,0.00,weatherlink.com 1.10,2013-08-19 01:08:00,
2013-08-18 20:23:00,72.3,61.0,29.95,SSW,211,0.0,5.0,68,0.00,,,0.00,weatherlink.com 1.10,2013-08-19 01:23:00,
2013-08-18 20:38:00,71.6,61.0,29.95,SW,229,0.0,4.0,70,0.00,,,0.00,weatherlink.com 1.10,2013-08-19 01:38:00,
2013-08-18 20:53:00,71.3,61.0,29.95,SW,216,2.0,6.0,70,0.00,,,0.00,weatherlink.com 1.10,2013-08-19 01:53:00,
2013-08-18 21:08:00,71.1,61.0,29.95,SSW,208,3.0,7.0,71,0.00,,,0.00,weatherlink.com 1.10,2013-08-19 02:08:00,
2013-08-18 21:23:00,70.7,61.0,29.95,SSW,198,2.0,7.0,72,0.00,,,0.00,weatherlink.com 1.10,2013-08-19 02:23:00,
2013-08-18 21:38:00,70.6,61.0,29.95,SW,215,4.0,10.0,72,0.00,,,0.00,weatherlink.com 1.10,2013-08-19 02:38:00,
2013-08-18 21:53:00,70.4,61.0,29.96,SW,218,6.0,9.0,72,0.00,,,0.00,weatherlink.com 1.10,2013-08-19 02:53:00,
2013-08-18 22:08:00,69.9,61.0,29.96,SSW,210,4.0,11.0,73,0.00,,,0.00,weatherlink.com 1.10,2013-08-19 03:08:00,
2013-08-18 22:23:00,68.6,60.0,29.97,SW,216,2.0,5.0,75,0.00,,,0.00,weatherlink.com 1.10,2013-08-19 03:23:00,
2013-08-18 22:38:00,68.3,60.0,29.97,SSW,203,4.0,6.0,76,0.00,,,0.00,weatherlink.com 1.10,2013-08-19 03:38:00,
2013-08-18 22:53:00,68.3,60.0,29.97,SW,222,2.0,6.0,76,0.00,,,0.00,weatherlink.com 1.10,2013-08-19 03:53:00,
2013-08-18 23:08:00,67.8,60.0,29.98,SW,224,1.0,5.0,77,0.00,,,0.00,weatherlink.com 1.10,2013-08-19 04:08:00,
2013-08-18 23:23:00,67.9,60.0,29.98,SW,223,3.0,4.0,77,0.00,,,0.00,weatherlink.com 1.10,2013-08-19 04:23:00,
2013-08-18 23:38:00,69.0,60.0,29.98,SSW,208,4.0,7.0,74,0.00,,,0.00,weatherlink.com 1.10,2013-08-19 04:38:00,
2013-08-18 23:53:00,69.1,61.0,29.98,SW,219,1.0,6.0,75,0.00,,,0.00,weatherlink.com 1.10,2013-08-19 04:53:00,